sensor_id;sensor_type;location;lat;lon;timestamp;P1;durP1;ratioP1;P2;durP2;ratioP2
20945;SDS011;10632;51.276;7.116;2023-07-22T00:00:28;7.38;;;2.30;;
20945;SDS011;10632;51.276;7.116;2023-07-22T00:02:56;12.60;;;3.10;;
20945;SDS011;10632;51.276;7.116;2023-07-22T00:05:23;6.68;;;2.40;;
20945;SDS011;10632;51.276;7.116;2023-07-22T00:07:52;6.45;;;2.35;;
20945;SDS011;10632;51.276;7.116;2023-07-22T00:10:20;6.95;;;2.35;;
20945;SDS011;10632;51.276;7.116;2023-07-22T00:12:47;6.18;;;2.60;;
20945;SDS011;10632;51.276;7.116;2023-07-22T00:15:14;13.45;;;2.58;;
20945;SDS011;10632;51.276;7.116;2023-07-22T00:17:41;7.70;;;2.70;;
20945;SDS011;10632;51.276;7.116;2023-07-22T00:20:10;8.98;;;2.42;;
20945;SDS011;10632;51.276;7.116;2023-07-22T00:22:37;7.28;;;2.47;;
20945;SDS011;10632;51.276;7.116;2023-07-22T00:25:07;6.95;;;2.47;;
20945;SDS011;10632;51.276;7.116;2023-07-22T00:27:36;5.97;;;2.15;;
20945;SDS011;10632;51.276;7.116;2023-07-22T00:30:06;10.25;;;2.50;;
20945;SDS011;10632;51.276;7.116;2023-07-22T00:32:36;6.53;;;2.22;;
20945;SDS011;10632;51.276;7.116;2023-07-22T00:35:03;5.07;;;2.00;;
20945;SDS011;10632;51.276;7.116;2023-07-22T00:37:34;7.88;;;2.40;;
20945;SDS011;10632;51.276;7.116;2023-07-22T00:40:09;6.53;;;2.38;;
20945;SDS011;10632;51.276;7.116;2023-07-22T00:42:45;9.02;;;2.40;;
20945;SDS011;10632;51.276;7.116;2023-07-22T00:45:38;11.13;;;3.03;;
20945;SDS011;10632;51.276;7.116;2023-07-22T00:48:05;5.88;;;2.15;;
20945;SDS011;10632;51.276;7.116;2023-07-22T00:50:33;6.10;;;2.42;;
20945;SDS011;10632;51.276;7.116;2023-07-22T00:53:01;7.38;;;2.50;;
20945;SDS011;10632;51.276;7.116;2023-07-22T00:55:33;7.45;;;2.33;;
20945;SDS011;10632;51.276;7.116;2023-07-22T00:58:02;8.15;;;2.78;;
20945;SDS011;10632;51.276;7.116;2023-07-22T01:00:32;7.63;;;2.40;;
20945;SDS011;10632;51.276;7.116;2023-07-22T01:03:04;6.65;;;2.35;;
20945;SDS011;10632;51.276;7.116;2023-07-22T01:05:34;7.35;;;2.33;;
20945;SDS011;10632;51.276;7.116;2023-07-22T01:08:05;11.00;;;2.80;;
20945;SDS011;10632;51.276;7.116;2023-07-22T01:10:39;10.02;;;2.60;;
20945;SDS011;10632;51.276;7.116;2023-07-22T01:13:17;7.53;;;2.33;;
20945;SDS011;10632;51.276;7.116;2023-07-22T01:15:50;6.95;;;2.13;;
20945;SDS011;10632;51.276;7.116;2023-07-22T01:18:20;8.05;;;2.70;;
20945;SDS011;10632;51.276;7.116;2023-07-22T01:21:24;8.60;;;2.50;;
20945;SDS011;10632;51.276;7.116;2023-07-22T01:24:14;6.75;;;2.40;;
20945;SDS011;10632;51.276;7.116;2023-07-22T01:26:44;5.95;;;1.88;;
20945;SDS011;10632;51.276;7.116;2023-07-22T01:29:20;6.57;;;2.47;;
20945;SDS011;10632;51.276;7.116;2023-07-22T01:31:55;8.90;;;2.50;;
20945;SDS011;10632;51.276;7.116;2023-07-22T01:34:26;6.50;;;2.20;;
20945;SDS011;10632;51.276;7.116;2023-07-22T01:36:55;5.10;;;2.30;;
20945;SDS011;10632;51.276;7.116;2023-07-22T01:39:23;6.03;;;2.30;;
20945;SDS011;10632;51.276;7.116;2023-07-22T01:41:50;8.68;;;2.35;;
20945;SDS011;10632;51.276;7.116;2023-07-22T01:44:17;7.90;;;2.53;;
20945;SDS011;10632;51.276;7.116;2023-07-22T01:46:44;8.55;;;2.95;;
20945;SDS011;10632;51.276;7.116;2023-07-22T01:49:17;9.02;;;2.65;;
20945;SDS011;10632;51.276;7.116;2023-07-22T01:52:07;6.68;;;2.60;;
20945;SDS011;10632;51.276;7.116;2023-07-22T01:55:04;6.47;;;2.45;;
20945;SDS011;10632;51.276;7.116;2023-07-22T01:57:43;7.97;;;2.90;;
20945;SDS011;10632;51.276;7.116;2023-07-22T02:00:13;8.82;;;2.58;;
20945;SDS011;10632;51.276;7.116;2023-07-22T02:02:47;7.95;;;2.80;;
20945;SDS011;10632;51.276;7.116;2023-07-22T02:05:22;6.35;;;2.28;;
20945;SDS011;10632;51.276;7.116;2023-07-22T02:07:50;7.22;;;2.30;;
20945;SDS011;10632;51.276;7.116;2023-07-22T02:10:19;7.38;;;2.50;;
20945;SDS011;10632;51.276;7.116;2023-07-22T02:12:46;7.90;;;2.95;;
20945;SDS011;10632;51.276;7.116;2023-07-22T02:15:21;7.20;;;2.50;;
20945;SDS011;10632;51.276;7.116;2023-07-22T02:17:49;7.68;;;2.40;;
20945;SDS011;10632;51.276;7.116;2023-07-22T02:20:26;5.80;;;2.38;;
20945;SDS011;10632;51.276;7.116;2023-07-22T02:23:15;7.00;;;2.20;;
20945;SDS011;10632;51.276;7.116;2023-07-22T02:25:57;6.72;;;2.60;;
20945;SDS011;10632;51.276;7.116;2023-07-22T02:28:24;7.20;;;2.28;;
20945;SDS011;10632;51.276;7.116;2023-07-22T02:30:52;6.95;;;2.33;;
20945;SDS011;10632;51.276;7.116;2023-07-22T02:33:21;6.68;;;2.55;;
20945;SDS011;10632;51.276;7.116;2023-07-22T02:35:48;5.70;;;1.88;;
20945;SDS011;10632;51.276;7.116;2023-07-22T02:38:19;7.97;;;2.33;;
20945;SDS011;10632;51.276;7.116;2023-07-22T02:40:46;9.40;;;2.50;;
20945;SDS011;10632;51.276;7.116;2023-07-22T02:43:14;7.72;;;2.45;;
20945;SDS011;10632;51.276;7.116;2023-07-22T02:45:44;5.40;;;2.28;;
20945;SDS011;10632;51.276;7.116;2023-07-22T02:48:12;10.85;;;2.45;;
20945;SDS011;10632;51.276;7.116;2023-07-22T02:50:39;6.75;;;2.30;;
20945;SDS011;10632;51.276;7.116;2023-07-22T02:55:44;7.53;;;2.55;;
20945;SDS011;10632;51.276;7.116;2023-07-22T02:58:14;8.52;;;2.53;;
20945;SDS011;10632;51.276;7.116;2023-07-22T03:00:40;7.20;;;2.50;;
20945;SDS011;10632;51.276;7.116;2023-07-22T03:03:10;6.60;;;2.25;;
20945;SDS011;10632;51.276;7.116;2023-07-22T03:05:37;6.43;;;2.13;;
20945;SDS011;10632;51.276;7.116;2023-07-22T03:08:09;6.90;;;2.42;;
20945;SDS011;10632;51.276;7.116;2023-07-22T03:10:40;7.32;;;2.78;;
20945;SDS011;10632;51.276;7.116;2023-07-22T03:13:15;8.82;;;2.22;;
20945;SDS011;10632;51.276;7.116;2023-07-22T03:15:42;7.82;;;2.30;;
20945;SDS011;10632;51.276;7.116;2023-07-22T03:18:09;8.68;;;2.58;;
20945;SDS011;10632;51.276;7.116;2023-07-22T03:20:37;5.35;;;1.80;;
20945;SDS011;10632;51.276;7.116;2023-07-22T03:23:10;9.98;;;2.53;;
20945;SDS011;10632;51.276;7.116;2023-07-22T03:25:39;7.10;;;2.80;;
20945;SDS011;10632;51.276;7.116;2023-07-22T03:28:06;5.80;;;2.10;;
20945;SDS011;10632;51.276;7.116;2023-07-22T03:30:38;10.93;;;3.03;;
20945;SDS011;10632;51.276;7.116;2023-07-22T03:33:07;6.22;;;2.00;;
20945;SDS011;10632;51.276;7.116;2023-07-22T03:35:34;8.70;;;2.42;;
20945;SDS011;10632;51.276;7.116;2023-07-22T03:38:01;9.63;;;2.20;;
20945;SDS011;10632;51.276;7.116;2023-07-22T03:40:30;5.07;;;1.98;;
20945;SDS011;10632;51.276;7.116;2023-07-22T03:42:57;6.22;;;2.13;;
20945;SDS011;10632;51.276;7.116;2023-07-22T03:45:24;6.68;;;1.90;;
20945;SDS011;10632;51.276;7.116;2023-07-22T03:47:56;8.18;;;2.13;;
20945;SDS011;10632;51.276;7.116;2023-07-22T03:50:24;5.40;;;1.73;;
20945;SDS011;10632;51.276;7.116;2023-07-22T03:52:51;5.90;;;2.13;;
20945;SDS011;10632;51.276;7.116;2023-07-22T03:55:21;5.88;;;1.98;;
20945;SDS011;10632;51.276;7.116;2023-07-22T03:57:48;7.68;;;2.40;;
20945;SDS011;10632;51.276;7.116;2023-07-22T04:00:15;5.55;;;2.03;;
20945;SDS011;10632;51.276;7.116;2023-07-22T04:02:42;3.95;;;1.83;;
20945;SDS011;10632;51.276;7.116;2023-07-22T04:05:10;8.23;;;2.28;;
20945;SDS011;10632;51.276;7.116;2023-07-22T04:07:37;6.20;;;1.90;;
20945;SDS011;10632;51.276;7.116;2023-07-22T04:10:05;7.03;;;2.30;;
20945;SDS011;10632;51.276;7.116;2023-07-22T04:12:33;8.05;;;2.47;;
20945;SDS011;10632;51.276;7.116;2023-07-22T04:15:00;7.95;;;1.92;;
20945;SDS011;10632;51.276;7.116;2023-07-22T04:17:28;5.63;;;2.00;;
20945;SDS011;10632;51.276;7.116;2023-07-22T04:19:55;8.45;;;2.28;;
20945;SDS011;10632;51.276;7.116;2023-07-22T04:22:24;4.55;;;1.90;;
20945;SDS011;10632;51.276;7.116;2023-07-22T04:24:51;5.60;;;1.85;;
20945;SDS011;10632;51.276;7.116;2023-07-22T04:27:17;5.93;;;2.05;;
20945;SDS011;10632;51.276;7.116;2023-07-22T04:29:45;6.72;;;1.70;;
20945;SDS011;10632;51.276;7.116;2023-07-22T04:32:12;6.35;;;2.20;;
20945;SDS011;10632;51.276;7.116;2023-07-22T04:34:39;5.68;;;2.13;;
20945;SDS011;10632;51.276;7.116;2023-07-22T04:37:09;8.80;;;2.67;;
20945;SDS011;10632;51.276;7.116;2023-07-22T04:39:37;8.07;;;2.45;;
20945;SDS011;10632;51.276;7.116;2023-07-22T04:42:04;6.25;;;2.00;;
20945;SDS011;10632;51.276;7.116;2023-07-22T04:44:32;7.55;;;2.08;;
20945;SDS011;10632;51.276;7.116;2023-07-22T04:47:01;6.22;;;1.90;;
20945;SDS011;10632;51.276;7.116;2023-07-22T04:49:28;7.18;;;2.47;;
20945;SDS011;10632;51.276;7.116;2023-07-22T04:51:56;4.65;;;1.77;;
20945;SDS011;10632;51.276;7.116;2023-07-22T04:54:22;6.65;;;2.22;;
20945;SDS011;10632;51.276;7.116;2023-07-22T04:56:51;5.15;;;2.08;;
20945;SDS011;10632;51.276;7.116;2023-07-22T04:59:18;6.95;;;2.30;;
20945;SDS011;10632;51.276;7.116;2023-07-22T05:01:45;6.45;;;2.00;;
20945;SDS011;10632;51.276;7.116;2023-07-22T05:04:11;5.32;;;2.10;;
20945;SDS011;10632;51.276;7.116;2023-07-22T05:06:39;7.47;;;2.60;;
20945;SDS011;10632;51.276;7.116;2023-07-22T05:09:06;5.43;;;2.10;;
20945;SDS011;10632;51.276;7.116;2023-07-22T05:11:33;7.45;;;2.33;;
20945;SDS011;10632;51.276;7.116;2023-07-22T05:14:01;6.93;;;2.53;;
20945;SDS011;10632;51.276;7.116;2023-07-22T05:16:27;6.85;;;2.28;;
20945;SDS011;10632;51.276;7.116;2023-07-22T05:18:54;6.63;;;2.40;;
20945;SDS011;10632;51.276;7.116;2023-07-22T05:21:21;7.07;;;2.13;;
20945;SDS011;10632;51.276;7.116;2023-07-22T05:23:48;3.95;;;1.70;;
20945;SDS011;10632;51.276;7.116;2023-07-22T05:26:15;6.40;;;2.63;;
20945;SDS011;10632;51.276;7.116;2023-07-22T05:28:42;6.05;;;2.20;;
20945;SDS011;10632;51.276;7.116;2023-07-22T05:31:10;8.60;;;2.10;;
20945;SDS011;10632;51.276;7.116;2023-07-22T05:33:37;7.32;;;2.60;;
20945;SDS011;10632;51.276;7.116;2023-07-22T05:36:04;6.80;;;2.30;;
20945;SDS011;10632;51.276;7.116;2023-07-22T05:38:31;8.38;;;2.92;;
20945;SDS011;10632;51.276;7.116;2023-07-22T05:40:58;5.75;;;1.83;;
20945;SDS011;10632;51.276;7.116;2023-07-22T05:43:25;7.70;;;2.65;;
20945;SDS011;10632;51.276;7.116;2023-07-22T05:45:52;6.28;;;2.65;;
20945;SDS011;10632;51.276;7.116;2023-07-22T05:48:20;8.38;;;2.50;;
20945;SDS011;10632;51.276;7.116;2023-07-22T05:50:47;6.18;;;2.30;;
20945;SDS011;10632;51.276;7.116;2023-07-22T05:53:14;6.47;;;2.28;;
20945;SDS011;10632;51.276;7.116;2023-07-22T05:55:41;6.03;;;2.63;;
20945;SDS011;10632;51.276;7.116;2023-07-22T05:58:15;7.90;;;2.63;;
20945;SDS011;10632;51.276;7.116;2023-07-22T06:00:42;9.13;;;2.83;;
20945;SDS011;10632;51.276;7.116;2023-07-22T06:03:09;6.47;;;2.40;;
20945;SDS011;10632;51.276;7.116;2023-07-22T06:05:37;12.10;;;2.92;;
20945;SDS011;10632;51.276;7.116;2023-07-22T06:08:04;7.18;;;2.33;;
20945;SDS011;10632;51.276;7.116;2023-07-22T06:10:32;6.95;;;2.42;;
20945;SDS011;10632;51.276;7.116;2023-07-22T06:13:00;6.28;;;2.05;;
20945;SDS011;10632;51.276;7.116;2023-07-22T06:15:26;6.93;;;2.58;;
20945;SDS011;10632;51.276;7.116;2023-07-22T06:17:54;6.00;;;2.40;;
20945;SDS011;10632;51.276;7.116;2023-07-22T06:20:21;11.95;;;2.28;;
20945;SDS011;10632;51.276;7.116;2023-07-22T06:22:49;6.47;;;2.70;;
20945;SDS011;10632;51.276;7.116;2023-07-22T06:25:16;7.60;;;2.60;;
20945;SDS011;10632;51.276;7.116;2023-07-22T06:27:45;6.43;;;2.42;;
20945;SDS011;10632;51.276;7.116;2023-07-22T06:30:12;7.10;;;2.42;;
20945;SDS011;10632;51.276;7.116;2023-07-22T06:32:40;7.55;;;2.60;;
20945;SDS011;10632;51.276;7.116;2023-07-22T06:35:07;5.25;;;2.17;;
20945;SDS011;10632;51.276;7.116;2023-07-22T06:37:35;6.78;;;2.50;;
20945;SDS011;10632;51.276;7.116;2023-07-22T06:40:05;6.22;;;2.10;;
20945;SDS011;10632;51.276;7.116;2023-07-22T06:42:33;7.07;;;2.47;;
20945;SDS011;10632;51.276;7.116;2023-07-22T06:45:00;8.82;;;2.72;;
20945;SDS011;10632;51.276;7.116;2023-07-22T06:47:27;7.53;;;2.30;;
20945;SDS011;10632;51.276;7.116;2023-07-22T06:49:53;7.57;;;2.13;;
20945;SDS011;10632;51.276;7.116;2023-07-22T06:52:20;7.13;;;2.30;;
20945;SDS011;10632;51.276;7.116;2023-07-22T06:54:47;6.78;;;2.33;;
20945;SDS011;10632;51.276;7.116;2023-07-22T06:57:15;5.38;;;2.10;;
20945;SDS011;10632;51.276;7.116;2023-07-22T06:59:43;9.32;;;2.85;;
20945;SDS011;10632;51.276;7.116;2023-07-22T07:02:10;5.38;;;2.30;;
20945;SDS011;10632;51.276;7.116;2023-07-22T07:04:37;8.52;;;2.70;;
20945;SDS011;10632;51.276;7.116;2023-07-22T07:07:04;5.82;;;2.20;;
20945;SDS011;10632;51.276;7.116;2023-07-22T07:09:31;4.95;;;1.92;;
20945;SDS011;10632;51.276;7.116;2023-07-22T07:11:58;7.15;;;2.05;;
20945;SDS011;10632;51.276;7.116;2023-07-22T07:14:26;6.78;;;2.10;;
20945;SDS011;10632;51.276;7.116;2023-07-22T07:16:53;7.03;;;1.90;;
20945;SDS011;10632;51.276;7.116;2023-07-22T07:19:20;6.07;;;2.13;;
20945;SDS011;10632;51.276;7.116;2023-07-22T07:21:47;6.00;;;2.15;;
20945;SDS011;10632;51.276;7.116;2023-07-22T07:24:14;9.32;;;2.30;;
20945;SDS011;10632;51.276;7.116;2023-07-22T07:26:41;5.75;;;2.33;;
20945;SDS011;10632;51.276;7.116;2023-07-22T07:29:08;8.15;;;2.72;;
20945;SDS011;10632;51.276;7.116;2023-07-22T07:31:36;7.32;;;2.17;;
20945;SDS011;10632;51.276;7.116;2023-07-22T07:34:03;6.05;;;2.05;;
20945;SDS011;10632;51.276;7.116;2023-07-22T07:36:31;9.50;;;2.60;;
20945;SDS011;10632;51.276;7.116;2023-07-22T07:38:58;8.20;;;2.40;;
20945;SDS011;10632;51.276;7.116;2023-07-22T07:41:25;10.02;;;2.40;;
20945;SDS011;10632;51.276;7.116;2023-07-22T07:43:52;5.78;;;1.85;;
20945;SDS011;10632;51.276;7.116;2023-07-22T07:46:20;7.38;;;2.30;;
20945;SDS011;10632;51.276;7.116;2023-07-22T07:48:50;7.45;;;2.63;;
20945;SDS011;10632;51.276;7.116;2023-07-22T07:51:18;8.05;;;2.45;;
20945;SDS011;10632;51.276;7.116;2023-07-22T07:53:46;7.32;;;2.70;;
20945;SDS011;10632;51.276;7.116;2023-07-22T07:56:14;6.20;;;2.40;;
20945;SDS011;10632;51.276;7.116;2023-07-22T07:58:43;7.05;;;2.70;;
20945;SDS011;10632;51.276;7.116;2023-07-22T08:01:10;6.63;;;2.75;;
20945;SDS011;10632;51.276;7.116;2023-07-22T08:03:38;7.90;;;2.78;;
20945;SDS011;10632;51.276;7.116;2023-07-22T08:06:08;7.70;;;2.55;;
20945;SDS011;10632;51.276;7.116;2023-07-22T08:08:34;7.22;;;2.60;;
20945;SDS011;10632;51.276;7.116;2023-07-22T08:11:03;10.13;;;2.70;;
20945;SDS011;10632;51.276;7.116;2023-07-22T08:13:31;9.23;;;2.83;;
20945;SDS011;10632;51.276;7.116;2023-07-22T08:15:59;8.02;;;2.88;;
20945;SDS011;10632;51.276;7.116;2023-07-22T08:18:26;10.68;;;2.92;;
20945;SDS011;10632;51.276;7.116;2023-07-22T08:20:53;8.38;;;3.08;;
20945;SDS011;10632;51.276;7.116;2023-07-22T08:23:22;7.28;;;2.90;;
20945;SDS011;10632;51.276;7.116;2023-07-22T08:25:49;13.30;;;3.10;;
20945;SDS011;10632;51.276;7.116;2023-07-22T08:28:16;7.90;;;3.40;;
20945;SDS011;10632;51.276;7.116;2023-07-22T08:30:43;6.80;;;2.63;;
20945;SDS011;10632;51.276;7.116;2023-07-22T08:33:10;12.85;;;3.25;;
20945;SDS011;10632;51.276;7.116;2023-07-22T08:35:38;6.35;;;2.50;;
20945;SDS011;10632;51.276;7.116;2023-07-22T08:38:05;7.13;;;2.33;;
20945;SDS011;10632;51.276;7.116;2023-07-22T08:40:35;11.32;;;3.00;;
20945;SDS011;10632;51.276;7.116;2023-07-22T08:43:02;7.82;;;2.88;;
20945;SDS011;10632;51.276;7.116;2023-07-22T08:45:33;9.20;;;3.05;;
20945;SDS011;10632;51.276;7.116;2023-07-22T08:48:02;8.95;;;3.00;;
20945;SDS011;10632;51.276;7.116;2023-07-22T08:50:33;7.13;;;3.25;;
20945;SDS011;10632;51.276;7.116;2023-07-22T08:53:02;8.68;;;3.28;;
20945;SDS011;10632;51.276;7.116;2023-07-22T08:55:30;8.32;;;2.92;;
20945;SDS011;10632;51.276;7.116;2023-07-22T08:57:58;8.55;;;3.20;;
20945;SDS011;10632;51.276;7.116;2023-07-22T09:00:25;9.02;;;3.20;;
20945;SDS011;10632;51.276;7.116;2023-07-22T09:02:53;8.07;;;2.80;;
20945;SDS011;10632;51.276;7.116;2023-07-22T09:05:20;8.20;;;3.08;;
20945;SDS011;10632;51.276;7.116;2023-07-22T09:07:47;6.43;;;2.75;;
20945;SDS011;10632;51.276;7.116;2023-07-22T09:10:18;7.88;;;3.00;;
20945;SDS011;10632;51.276;7.116;2023-07-22T09:12:46;5.18;;;2.30;;
20945;SDS011;10632;51.276;7.116;2023-07-22T09:15:15;7.95;;;2.25;;
20945;SDS011;10632;51.276;7.116;2023-07-22T09:17:42;5.28;;;2.30;;
20945;SDS011;10632;51.276;7.116;2023-07-22T09:20:11;9.20;;;2.55;;
20945;SDS011;10632;51.276;7.116;2023-07-22T09:22:43;7.18;;;2.78;;
20945;SDS011;10632;51.276;7.116;2023-07-22T09:25:14;8.02;;;2.38;;
20945;SDS011;10632;51.276;7.116;2023-07-22T09:27:43;7.07;;;2.50;;
20945;SDS011;10632;51.276;7.116;2023-07-22T09:30:24;6.43;;;2.42;;
20945;SDS011;10632;51.276;7.116;2023-07-22T09:32:53;6.72;;;2.35;;
20945;SDS011;10632;51.276;7.116;2023-07-22T09:35:21;5.55;;;2.25;;
20945;SDS011;10632;51.276;7.116;2023-07-22T09:37:48;5.82;;;2.25;;
20945;SDS011;10632;51.276;7.116;2023-07-22T09:40:15;5.22;;;2.13;;
20945;SDS011;10632;51.276;7.116;2023-07-22T09:42:45;4.85;;;2.13;;
20945;SDS011;10632;51.276;7.116;2023-07-22T09:45:12;4.85;;;1.83;;
20945;SDS011;10632;51.276;7.116;2023-07-22T09:47:41;5.63;;;2.33;;
20945;SDS011;10632;51.276;7.116;2023-07-22T09:50:13;6.00;;;2.00;;
20945;SDS011;10632;51.276;7.116;2023-07-22T09:52:44;4.43;;;1.83;;
20945;SDS011;10632;51.276;7.116;2023-07-22T09:55:14;4.45;;;1.98;;
20945;SDS011;10632;51.276;7.116;2023-07-22T09:57:43;5.20;;;1.90;;
20945;SDS011;10632;51.276;7.116;2023-07-22T10:00:12;6.10;;;2.25;;
20945;SDS011;10632;51.276;7.116;2023-07-22T10:02:43;5.13;;;1.92;;
20945;SDS011;10632;51.276;7.116;2023-07-22T10:05:12;10.95;;;2.30;;
20945;SDS011;10632;51.276;7.116;2023-07-22T10:07:44;5.70;;;2.08;;
20945;SDS011;10632;51.276;7.116;2023-07-22T10:10:12;6.97;;;1.98;;
20945;SDS011;10632;51.276;7.116;2023-07-22T10:12:42;7.97;;;2.17;;
20945;SDS011;10632;51.276;7.116;2023-07-22T10:15:10;4.20;;;2.05;;
20945;SDS011;10632;51.276;7.116;2023-07-22T10:17:38;5.80;;;2.20;;
20945;SDS011;10632;51.276;7.116;2023-07-22T10:20:08;4.85;;;2.00;;
20945;SDS011;10632;51.276;7.116;2023-07-22T10:22:40;5.53;;;1.80;;
20945;SDS011;10632;51.276;7.116;2023-07-22T10:25:10;5.72;;;2.20;;
20945;SDS011;10632;51.276;7.116;2023-07-22T10:27:37;5.68;;;2.10;;
20945;SDS011;10632;51.276;7.116;2023-07-22T10:30:07;4.65;;;2.00;;
20945;SDS011;10632;51.276;7.116;2023-07-22T10:32:35;7.50;;;2.00;;
20945;SDS011;10632;51.276;7.116;2023-07-22T10:35:03;4.78;;;1.65;;
20945;SDS011;10632;51.276;7.116;2023-07-22T10:37:36;4.38;;;1.73;;
20945;SDS011;10632;51.276;7.116;2023-07-22T10:40:20;4.55;;;1.80;;
20945;SDS011;10632;51.276;7.116;2023-07-22T10:42:53;4.25;;;1.50;;
20945;SDS011;10632;51.276;7.116;2023-07-22T10:45:24;4.53;;;1.92;;
20945;SDS011;10632;51.276;7.116;2023-07-22T10:48:01;3.50;;;1.40;;
20945;SDS011;10632;51.276;7.116;2023-07-22T10:50:41;2.70;;;1.23;;
20945;SDS011;10632;51.276;7.116;2023-07-22T10:53:10;2.50;;;1.10;;
20945;SDS011;10632;51.276;7.116;2023-07-22T10:58:31;2.38;;;1.08;;
20945;SDS011;10632;51.276;7.116;2023-07-22T11:04:09;2.08;;;0.90;;
20945;SDS011;10632;51.276;7.116;2023-07-22T11:06:38;2.03;;;0.93;;
20945;SDS011;10632;51.276;7.116;2023-07-22T11:09:07;3.38;;;1.17;;
20945;SDS011;10632;51.276;7.116;2023-07-22T11:12:02;2.35;;;1.23;;
20945;SDS011;10632;51.276;7.116;2023-07-22T11:14:30;3.25;;;1.30;;
20945;SDS011;10632;51.276;7.116;2023-07-22T11:16:58;2.50;;;1.17;;
20945;SDS011;10632;51.276;7.116;2023-07-22T11:19:28;2.33;;;1.10;;
20945;SDS011;10632;51.276;7.116;2023-07-22T11:21:55;2.88;;;1.20;;
20945;SDS011;10632;51.276;7.116;2023-07-22T11:24:24;4.05;;;1.40;;
20945;SDS011;10632;51.276;7.116;2023-07-22T11:26:51;2.90;;;1.27;;
20945;SDS011;10632;51.276;7.116;2023-07-22T11:29:19;3.50;;;1.30;;
20945;SDS011;10632;51.276;7.116;2023-07-22T11:31:47;2.97;;;1.15;;
20945;SDS011;10632;51.276;7.116;2023-07-22T11:34:17;2.50;;;1.00;;
20945;SDS011;10632;51.276;7.116;2023-07-22T11:36:46;3.65;;;1.20;;
20945;SDS011;10632;51.276;7.116;2023-07-22T11:39:14;2.72;;;1.30;;
20945;SDS011;10632;51.276;7.116;2023-07-22T11:41:46;3.33;;;1.30;;
20945;SDS011;10632;51.276;7.116;2023-07-22T11:44:15;3.22;;;1.40;;
20945;SDS011;10632;51.276;7.116;2023-07-22T11:46:46;2.85;;;1.30;;
20945;SDS011;10632;51.276;7.116;2023-07-22T11:49:22;2.80;;;1.40;;
20945;SDS011;10632;51.276;7.116;2023-07-22T11:51:50;3.20;;;1.25;;
20945;SDS011;10632;51.276;7.116;2023-07-22T11:54:18;2.83;;;1.35;;
20945;SDS011;10632;51.276;7.116;2023-07-22T11:56:48;1.90;;;0.95;;
20945;SDS011;10632;51.276;7.116;2023-07-22T11:59:15;2.25;;;0.93;;
20945;SDS011;10632;51.276;7.116;2023-07-22T12:01:43;3.10;;;1.10;;
20945;SDS011;10632;51.276;7.116;2023-07-22T12:04:12;2.78;;;1.23;;
20945;SDS011;10632;51.276;7.116;2023-07-22T12:06:39;2.80;;;1.17;;
20945;SDS011;10632;51.276;7.116;2023-07-22T12:09:07;4.18;;;1.20;;
20945;SDS011;10632;51.276;7.116;2023-07-22T12:11:35;2.42;;;1.17;;
20945;SDS011;10632;51.276;7.116;2023-07-22T12:14:10;2.35;;;1.17;;
20945;SDS011;10632;51.276;7.116;2023-07-22T12:16:39;3.15;;;1.13;;
20945;SDS011;10632;51.276;7.116;2023-07-22T12:19:07;3.17;;;1.40;;
20945;SDS011;10632;51.276;7.116;2023-07-22T12:21:35;2.83;;;1.08;;
20945;SDS011;10632;51.276;7.116;2023-07-22T12:24:02;4.53;;;0.95;;
20945;SDS011;10632;51.276;7.116;2023-07-22T12:26:29;3.08;;;1.17;;
20945;SDS011;10632;51.276;7.116;2023-07-22T12:28:56;2.58;;;1.10;;
20945;SDS011;10632;51.276;7.116;2023-07-22T12:31:25;5.40;;;1.20;;
20945;SDS011;10632;51.276;7.116;2023-07-22T12:33:52;6.65;;;1.30;;
20945;SDS011;10632;51.276;7.116;2023-07-22T12:36:19;6.47;;;1.17;;
20945;SDS011;10632;51.276;7.116;2023-07-22T12:38:46;3.78;;;1.30;;
20945;SDS011;10632;51.276;7.116;2023-07-22T12:41:13;2.55;;;1.27;;
20945;SDS011;10632;51.276;7.116;2023-07-22T12:43:40;4.28;;;1.23;;
20945;SDS011;10632;51.276;7.116;2023-07-22T12:46:07;3.38;;;1.20;;
20945;SDS011;10632;51.276;7.116;2023-07-22T12:48:35;2.80;;;1.20;;
20945;SDS011;10632;51.276;7.116;2023-07-22T12:51:02;2.97;;;1.40;;
20945;SDS011;10632;51.276;7.116;2023-07-22T12:53:29;2.67;;;1.20;;
20945;SDS011;10632;51.276;7.116;2023-07-22T12:55:56;3.58;;;1.30;;
20945;SDS011;10632;51.276;7.116;2023-07-22T12:58:23;2.92;;;1.20;;
20945;SDS011;10632;51.276;7.116;2023-07-22T13:00:50;2.10;;;1.15;;
20945;SDS011;10632;51.276;7.116;2023-07-22T13:03:16;3.33;;;1.15;;
20945;SDS011;10632;51.276;7.116;2023-07-22T13:05:45;3.25;;;1.35;;
20945;SDS011;10632;51.276;7.116;2023-07-22T13:08:11;2.63;;;1.30;;
20945;SDS011;10632;51.276;7.116;2023-07-22T13:10:38;4.07;;;1.30;;
20945;SDS011;10632;51.276;7.116;2023-07-22T13:13:09;2.83;;;1.15;;
20945;SDS011;10632;51.276;7.116;2023-07-22T13:15:36;3.72;;;1.33;;
20945;SDS011;10632;51.276;7.116;2023-07-22T13:18:02;3.38;;;1.10;;
20945;SDS011;10632;51.276;7.116;2023-07-22T13:20:29;3.15;;;1.38;;
20945;SDS011;10632;51.276;7.116;2023-07-22T13:22:58;2.78;;;1.23;;
20945;SDS011;10632;51.276;7.116;2023-07-22T13:25:24;3.50;;;1.30;;
20945;SDS011;10632;51.276;7.116;2023-07-22T13:27:51;2.80;;;1.30;;
20945;SDS011;10632;51.276;7.116;2023-07-22T13:30:18;4.00;;;1.30;;
20945;SDS011;10632;51.276;7.116;2023-07-22T13:32:45;3.08;;;1.42;;
20945;SDS011;10632;51.276;7.116;2023-07-22T13:35:12;3.05;;;1.27;;
20945;SDS011;10632;51.276;7.116;2023-07-22T13:37:39;3.05;;;1.33;;
20945;SDS011;10632;51.276;7.116;2023-07-22T13:40:08;1.65;;;0.80;;
20945;SDS011;10632;51.276;7.116;2023-07-22T13:42:36;3.78;;;1.27;;
20945;SDS011;10632;51.276;7.116;2023-07-22T13:45:04;3.42;;;1.20;;
20945;SDS011;10632;51.276;7.116;2023-07-22T13:47:31;5.85;;;1.23;;
20945;SDS011;10632;51.276;7.116;2023-07-22T13:49:58;3.90;;;1.50;;
20945;SDS011;10632;51.276;7.116;2023-07-22T13:52:25;2.70;;;1.10;;
20945;SDS011;10632;51.276;7.116;2023-07-22T13:54:52;2.97;;;1.20;;
20945;SDS011;10632;51.276;7.116;2023-07-22T13:57:20;2.00;;;1.10;;
20945;SDS011;10632;51.276;7.116;2023-07-22T13:59:47;2.97;;;1.20;;
20945;SDS011;10632;51.276;7.116;2023-07-22T14:02:14;3.58;;;1.17;;
20945;SDS011;10632;51.276;7.116;2023-07-22T14:04:41;2.60;;;1.10;;
20945;SDS011;10632;51.276;7.116;2023-07-22T14:07:08;3.03;;;1.20;;
20945;SDS011;10632;51.276;7.116;2023-07-22T14:09:35;2.83;;;1.15;;
20945;SDS011;10632;51.276;7.116;2023-07-22T14:12:02;3.10;;;1.20;;
20945;SDS011;10632;51.276;7.116;2023-07-22T14:14:31;2.35;;;1.02;;
20945;SDS011;10632;51.276;7.116;2023-07-22T14:16:57;2.40;;;0.90;;
20945;SDS011;10632;51.276;7.116;2023-07-22T14:19:24;3.33;;;1.10;;
20945;SDS011;10632;51.276;7.116;2023-07-22T14:21:51;2.55;;;1.10;;
20945;SDS011;10632;51.276;7.116;2023-07-22T14:24:18;3.00;;;1.23;;
20945;SDS011;10632;51.276;7.116;2023-07-22T14:26:45;2.42;;;1.20;;
20945;SDS011;10632;51.276;7.116;2023-07-22T14:29:12;5.28;;;1.17;;
20945;SDS011;10632;51.276;7.116;2023-07-22T14:31:41;4.18;;;1.10;;
20945;SDS011;10632;51.276;7.116;2023-07-22T14:34:08;3.28;;;1.40;;
20945;SDS011;10632;51.276;7.116;2023-07-22T14:36:35;2.72;;;0.98;;
20945;SDS011;10632;51.276;7.116;2023-07-22T14:39:02;2.65;;;1.17;;
20945;SDS011;10632;51.276;7.116;2023-07-22T14:41:29;2.50;;;1.17;;
20945;SDS011;10632;51.276;7.116;2023-07-22T14:43:57;2.90;;;1.17;;
20945;SDS011;10632;51.276;7.116;2023-07-22T14:46:24;3.22;;;1.10;;
20945;SDS011;10632;51.276;7.116;2023-07-22T14:48:52;2.33;;;1.10;;
20945;SDS011;10632;51.276;7.116;2023-07-22T14:51:19;2.63;;;1.05;;
20945;SDS011;10632;51.276;7.116;2023-07-22T14:53:46;4.20;;;1.35;;
20945;SDS011;10632;51.276;7.116;2023-07-22T14:56:13;3.25;;;1.40;;
20945;SDS011;10632;51.276;7.116;2023-07-22T14:58:40;3.67;;;1.50;;
20945;SDS011;10632;51.276;7.116;2023-07-22T15:01:08;3.90;;;1.48;;
20945;SDS011;10632;51.276;7.116;2023-07-22T15:03:35;3.55;;;1.20;;
20945;SDS011;10632;51.276;7.116;2023-07-22T15:06:04;3.20;;;1.40;;